Time;durP1;ratioP1;P1;durP2;ratioP2;P2;SDS_P1;SDS_P2;PMS_P1;PMS_P2;Temp;Humidity;BMP_temperature;BMP_pressure;BME280_temperature;BME280_humidity;BME280_pressure;Samples;Min_cycle;Max_cycle;Signal;HPM_P1;HPM_P2
2023/01/24 00:00:42;;;;;;;30.30;15.38;;;;;;;1.07;100.00;103219.19;4970558;28;20046;-78
2023/01/24 00:03:12;;;;;;;26.63;14.30;;;;;;;1.07;100.00;103219.19;4967792;28;20054;-79
2023/01/24 00:05:40;;;;;;;29.05;14.48;;;;;;;1.07;100.00;103211.47;4974746;28;20042;-78
2023/01/24 00:08:07;;;;;;;25.88;13.27;;;;;;;1.07;100.00;103214.97;4974987;28;20094;-79
2023/01/24 00:10:33;;;;;;;24.02;13.88;;;;;;;1.09;100.00;103215.94;4981217;28;20096;-80
2023/01/24 00:13:00;;;;;;;28.73;14.07;;;;;;;1.09;100.00;103217.63;4958459;28;20051;-77
2023/01/24 00:15:26;;;;;;;20.67;12.48;;;;;;;1.11;100.00;103223.81;4966947;28;20046;-78
2023/01/24 00:17:53;;;;;;;17.60;10.70;;;;;;;1.10;100.00;103214.28;4973957;28;20042;-78
2023/01/24 00:20:19;;;;;;;23.48;12.80;;;;;;;1.11;100.00;103228.97;4975598;28;20487;-79
2023/01/24 00:22:46;;;;;;;24.17;12.68;;;;;;;1.12;100.00;103225.59;4967002;28;20154;-79
2023/01/24 00:25:13;;;;;;;19.98;11.55;;;;;;;1.12;100.00;103228.16;4969556;28;20628;-80
2023/01/24 00:27:40;;;;;;;21.10;11.45;;;;;;;1.12;100.00;103220.44;4958774;28;20050;-79
2023/01/24 00:30:07;;;;;;;20.08;11.90;;;;;;;1.11;100.00;103219.53;4979820;28;20042;-78
2023/01/24 00:32:34;;;;;;;19.77;10.75;;;;;;;1.13;100.00;103215.41;4975309;28;20038;-79
2023/01/24 00:35:00;;;;;;;21.63;12.73;;;;;;;1.12;100.00;103217.84;4956669;28;20057;-77
2023/01/24 00:37:27;;;;;;;19.83;11.52;;;;;;;1.13;100.00;103210.25;4975557;28;20102;-77
2023/01/24 00:39:53;;;;;;;21.60;11.55;;;;;;;1.15;100.00;103210.34;4971349;28;20042;-77
2023/01/24 00:42:20;;;;;;;21.77;12.02;;;;;;;1.14;100.00;103214.59;4966372;28;20046;-79
2023/01/24 00:44:46;;;;;;;18.67;9.77;;;;;;;1.15;100.00;103208.66;4965593;28;20043;-78
2023/01/24 00:47:13;;;;;;;18.13;9.50;;;;;;;1.17;100.00;103216.50;4976884;28;20109;-81
2023/01/24 00:49:39;;;;;;;17.77;10.85;;;;;;;1.18;100.00;103207.09;4958851;28;20039;-78
2023/01/24 00:52:12;;;;;;;22.02;11.25;;;;;;;1.21;100.00;103202.13;4965233;28;20140;-81
2023/01/24 00:54:39;;;;;;;19.80;10.35;;;;;;;1.18;100.00;103205.38;4965807;28;20038;-80
2023/01/24 00:57:05;;;;;;;18.23;12.02;;;;;;;1.18;100.00;103201.94;4969910;28;20401;-80
2023/01/24 00:59:32;;;;;;;17.70;10.07;;;;;;;1.19;100.00;103199.44;4967935;28;20904;-78
2023/01/24 01:01:58;;;;;;;19.65;10.85;;;;;;;1.19;100.00;103195.94;4960530;28;20433;-77
2023/01/24 01:04:25;;;;;;;20.48;11.13;;;;;;;1.20;100.00;103203.81;4955985;28;20042;-77
2023/01/24 01:06:52;;;;;;;20.23;10.57;;;;;;;1.19;100.00;103214.00;4952391;28;20054;-78
2023/01/24 01:09:18;;;;;;;18.77;9.80;;;;;;;1.18;100.00;103212.25;4989786;28;20377;-78
2023/01/24 01:11:45;;;;;;;18.13;10.13;;;;;;;1.19;100.00;103211.44;4968010;28;20047;-79
2023/01/24 01:14:11;;;;;;;19.17;9.98;;;;;;;1.21;100.00;103210.75;4957071;28;20046;-80
2023/01/24 01:16:38;;;;;;;12.48;9.32;;;;;;;1.20;100.00;103206.41;4964751;28;20042;-78
2023/01/24 01:19:06;;;;;;;15.07;9.18;;;;;;;1.20;100.00;103203.81;4971247;28;20792;-78
2023/01/24 01:21:33;;;;;;;14.50;9.23;;;;;;;1.20;100.00;103206.41;4965588;28;20058;-77
2023/01/24 01:23:59;;;;;;;17.27;9.02;;;;;;;1.20;100.00;103215.81;4940659;28;20078;-78
2023/01/24 01:26:26;;;;;;;17.75;10.32;;;;;;;1.19;100.00;103204.59;4981320;28;20050;-78
2023/01/24 01:28:52;;;;;;;14.45;8.88;;;;;;;1.22;100.00;103217.72;4971506;28;20042;-78
2023/01/24 01:31:20;;;;;;;13.98;8.98;;;;;;;1.22;100.00;103217.72;4969827;28;20046;-79
2023/01/24 01:33:47;;;;;;;16.02;9.85;;;;;;;1.22;100.00;103211.66;4983689;28;20046;-78
2023/01/24 01:36:14;;;;;;;14.40;8.27;;;;;;;1.21;100.00;103218.50;4967566;28;20049;-78
2023/01/24 01:38:40;;;;;;;17.63;9.38;;;;;;;1.22;100.00;103209.09;4968103;28;20043;-78
2023/01/24 01:41:07;;;;;;;17.58;9.30;;;;;;;1.21;100.00;103210.75;4967282;28;20042;-78
2023/01/24 01:43:36;;;;;;;18.42;9.57;;;;;;;1.21;100.00;103207.28;4951921;28;20122;-79
2023/01/24 01:46:20;;;;;;;16.20;8.57;;;;;;;1.21;100.00;103215.03;4965449;28;20053;-78
2023/01/24 01:48:58;;;;;;;14.40;8.80;;;;;;;1.21;100.00;103208.19;4966083;28;20448;-78
2023/01/24 01:51:33;;;;;;;14.32;9.38;;;;;;;1.23;100.00;103210.88;4952196;28;20678;-79
2023/01/24 01:54:06;;;;;;;13.45;8.18;;;;;;;1.22;100.00;103206.50;4971428;28;20093;-78
2023/01/24 01:56:42;;;;;;;16.73;8.13;;;;;;;1.22;100.00;103209.09;4964531;28;20400;-78
2023/01/24 01:59:15;;;;;;;11.65;7.90;;;;;;;1.22;100.00;103206.50;4971846;28;20945;-78
2023/01/24 02:01:45;;;;;;;15.73;9.23;;;;;;;1.20;100.00;103206.41;4971672;28;20058;-78
2023/01/24 02:04:23;;;;;;;14.50;7.78;;;;;;;1.20;100.00;103211.56;4975680;28;20481;-79
2023/01/24 02:07:33;;;;;;;12.00;7.78;;;;;;;1.20;100.00;103214.16;4962981;28;20055;-80
2023/01/24 02:10:00;;;;;;;12.20;6.90;;;;;;;1.22;100.00;103215.13;4946119;28;20064;-78
2023/01/24 02:12:54;;;;;;;9.43;7.22;;;;;;;1.24;100.00;103210.06;4958867;28;20047;-78
2023/01/24 02:18:10;;;;;;;13.13;7.70;;;;;;;1.24;100.00;103218.72;4968757;28;20046;-77
2023/01/24 02:20:45;;;;;;;8.50;6.32;;;;;;;1.24;100.00;103212.66;4965870;28;20055;-77
2023/01/24 02:23:37;;;;;;;10.93;7.13;;;;;;;1.24;100.00;103210.06;4969223;28;20497;-77
2023/01/24 02:26:13;;;;;;;11.40;6.70;;;;;;;1.25;100.00;103217.03;4978668;28;20046;-78
2023/01/24 02:29:11;;;;;;;11.05;6.90;;;;;;;1.24;100.00;103216.16;4970557;28;20042;-78
2023/01/24 02:32:03;;;;;;;10.85;6.38;;;;;;;1.24;100.00;103210.06;4986103;28;20042;-77
2023/01/24 02:34:30;;;;;;;12.82;7.60;;;;;;;1.23;100.00;103209.19;4968434;28;20054;-79
2023/01/24 02:37:05;;;;;;;10.52;5.75;;;;;;;1.24;100.00;103204.91;4971305;28;20043;-78
2023/01/24 02:39:56;;;;;;;9.88;5.82;;;;;;;1.24;100.00;103212.66;4964015;28;20048;-78
2023/01/24 02:42:31;;;;;;;8.07;6.10;;;;;;;1.22;100.00;103206.50;4966672;28;20050;-78
2023/01/24 02:45:12;;;;;;;13.50;6.65;;;;;;;1.23;100.00;103208.31;4953026;28;20047;-77
2023/01/24 02:47:45;;;;;;;8.40;5.75;;;;;;;1.24;100.00;103210.06;4950499;28;20457;-78
2023/01/24 02:59:59;;;;;;;10.57;6.47;;;;;;;1.22;100.00;103191.91;4919815;29;20369;-78
2023/01/24 03:02:26;;;;;;;11.55;6.03;;;;;;;1.21;100.00;103195.28;4942751;28;20062;-78
2023/01/24 03:04:52;;;;;;;9.45;6.47;;;;;;;1.22;100.00;103201.34;4961730;28;20047;-78
2023/01/24 03:07:18;;;;;;;8.90;6.13;;;;;;;1.19;100.00;103194.28;4970496;28;20047;-79
2023/01/24 03:09:48;;;;;;;9.95;6.65;;;;;;;1.21;100.00;103196.97;4964408;28;20057;-78
2023/01/24 03:36:53;;;;;;;9.98;5.55;;;;;;;1.08;100.00;103188.38;4973477;28;20117;-78
2023/01/24 03:42:04;;;;;;;12.93;5.95;;;;;;;1.07;100.00;103190.81;4978180;28;20058;-77
2023/01/24 03:44:30;;;;;;;10.88;6.65;;;;;;;1.07;100.00;103199.47;4989285;28;20046;-77
2023/01/24 03:46:57;;;;;;;10.68;6.75;;;;;;;1.07;100.00;103190.81;4989508;28;20046;-77
2023/01/24 03:52:27;;;;;;;7.68;5.57;;;;;;;1.07;100.00;103188.25;4976424;28;20066;-79
2023/01/24 03:54:53;;;;;;;9.90;6.30;;;;;;;1.07;100.00;103195.97;4983916;28;20051;-78
2023/01/24 03:57:20;;;;;;;11.10;6.75;;;;;;;1.06;100.00;103191.63;4980529;28;20050;-78
2023/01/24 03:59:47;;;;;;;7.93;6.60;;;;;;;1.07;100.00;103195.97;4976295;28;20038;-78
2023/01/24 04:02:13;;;;;;;10.27;6.03;;;;;;;1.07;100.00;103195.97;4967400;28;20050;-78
2023/01/24 04:07:24;;;;;;;9.55;6.63;;;;;;;1.04;100.00;103199.25;4971795;28;20589;-77
2023/01/24 04:09:50;;;;;;;15.40;8.45;;;;;;;1.04;100.00;103203.50;4970782;28;20130;-78
2023/01/24 04:12:18;;;;;;;9.65;6.97;;;;;;;1.04;100.00;103201.81;4980218;28;20042;-78
2023/01/24 04:14:44;;;;;;;11.88;7.20;;;;;;;1.02;100.00;103202.50;4959324;28;20049;-79
2023/01/24 04:17:11;;;;;;;11.98;7.50;;;;;;;1.02;100.00;103210.22;4967125;28;20047;-78
2023/01/24 04:19:37;;;;;;;10.80;7.53;;;;;;;1.01;100.00;103206.78;4962735;28;20106;-78
2023/01/24 04:22:04;;;;;;;10.68;6.20;;;;;;;1.03;100.00;103209.47;4965579;28;20055;-78
2023/01/24 04:24:31;;;;;;;12.48;6.10;;;;;;;1.03;100.00;103206.88;4933953;28;20053;-79
2023/01/24 04:26:57;;;;;;;9.20;6.28;;;;;;;1.02;100.00;103200.84;4952704;28;20047;-76
2023/01/24 04:29:24;;;;;;;11.85;6.32;;;;;;;1.02;100.00;103202.50;4946890;28;20079;-77
2023/01/24 04:31:50;;;;;;;10.35;5.68;;;;;;;0.99;100.00;103201.50;4961142;28;20063;-77
2023/01/24 04:34:17;;;;;;;10.40;6.45;;;;;;;0.98;100.00;103198.81;4946673;28;20046;-79
2023/01/24 04:36:43;;;;;;;9.60;6.10;;;;;;;0.98;100.00;103199.72;4932474;28;20075;-78
2023/01/24 04:39:10;;;;;;;11.25;7.10;;;;;;;0.97;100.00;103199.59;4952320;28;20038;-78
2023/01/24 04:41:36;;;;;;;7.00;5.20;;;;;;;0.99;100.00;103192.84;4957821;28;20151;-78
2023/01/24 04:44:03;;;;;;;9.35;6.03;;;;;;;0.99;100.00;103192.84;4947001;28;20047;-79
2023/01/24 04:46:29;;;;;;;8.70;6.35;;;;;;;0.99;100.00;103190.28;4966378;28;20045;-76
2023/01/24 04:48:56;;;;;;;8.43;5.68;;;;;;;0.99;100.00;103192.84;4944344;28;20043;-78
2023/01/24 04:51:23;;;;;;;10.38;6.18;;;;;;;0.99;100.00;103200.59;4959024;28;20049;-78
2023/01/24 04:53:49;;;;;;;10.48;5.82;;;;;;;0.98;100.00;103194.56;4961864;28;20121;-79
2023/01/24 04:56:16;;;;;;;10.65;6.22;;;;;;;0.99;100.00;103204.09;4952021;28;20089;-78
2023/01/24 04:58:42;;;;;;;8.82;5.75;;;;;;;0.99;100.00;103203.16;4965676;28;20118;-78
2023/01/24 05:01:09;;;;;;;10.57;5.57;;;;;;;0.99;100.00;103201.50;4966085;28;20055;-78
2023/01/24 05:03:36;;;;;;;9.52;5.93;;;;;;;0.98;100.00;103207.44;4959505;28;20118;-78
2023/01/24 05:06:06;;;;;;;8.23;4.90;;;;;;;0.98;100.00;103209.16;4948404;28;20442;-78
2023/01/24 05:08:32;;;;;;;7.38;5.00;;;;;;;0.99;100.00;103211.81;4953824;28;20039;-78
2023/01/24 05:11:03;;;;;;;7.57;5.00;;;;;;;0.99;100.00;103211.81;4955517;28;20053;-78
2023/01/24 05:13:30;;;;;;;7.78;5.28;;;;;;;1.01;100.00;103209.34;4961263;28;20046;-80
2023/01/24 05:15:57;;;;;;;6.10;5.00;;;;;;;1.01;100.00;103201.63;4946451;28;20069;-77
2023/01/24 05:18:23;;;;;;;7.07;4.35;;;;;;;1.03;100.00;103205.22;4954930;28;20058;-78
2023/01/24 05:20:50;;;;;;;6.13;4.18;;;;;;;1.02;100.00;103203.41;4948901;28;20058;-78
2023/01/24 05:23:16;;;;;;;8.50;4.82;;;;;;;1.02;100.00;103211.16;4966620;28;20059;-77
2023/01/24 05:25:43;;;;;;;7.10;4.95;;;;;;;1.02;100.00;103213.72;4968871;28;20634;-77
2023/01/24 05:28:09;;;;;;;6.65;4.40;;;;;;;1.04;100.00;103208.69;4965339;28;20123;-80
2023/01/24 05:30:36;;;;;;;5.55;4.85;;;;;;;1.03;100.00;103210.38;4973483;28;20531;-77
2023/01/24 05:33:03;;;;;;;10.05;5.60;;;;;;;1.03;100.00;103204.28;4950675;28;20898;-77
2023/01/24 05:35:30;;;;;;;8.70;5.30;;;;;;;1.02;100.00;103210.22;4965775;28;20069;-79
2023/01/24 05:37:59;;;;;;;13.18;8.40;;;;;;;1.02;100.00;103210.22;4944354;28;20519;-82
2023/01/24 05:40:25;;;;;;;5.82;4.65;;;;;;;1.02;100.00;103211.16;4964466;28;21223;-78
2023/01/24 05:42:52;;;;;;;7.07;4.57;;;;;;;1.03;100.00;103217.19;4963983;28;20046;-77
2023/01/24 05:45:19;;;;;;;8.18;5.40;;;;;;;1.02;100.00;103213.72;4963382;28;20053;-78
2023/01/24 05:47:45;;;;;;;7.00;5.40;;;;;;;1.04;99.77;103213.84;4951569;28;20051;-78
2023/01/24 05:50:12;;;;;;;6.88;4.88;;;;;;;1.04;100.00;103225.03;4972606;28;20038;-77
2023/01/24 05:52:38;;;;;;;7.70;4.85;;;;;;;1.05;100.00;103225.94;4967035;28;20050;-79
2023/01/24 05:55:05;;;;;;;6.60;5.88;;;;;;;1.03;100.00;103228.44;4952157;28;20049;-77
2023/01/24 05:57:33;;;;;;;8.82;6.10;;;;;;;1.04;99.67;103229.31;4970106;28;20069;-79
2023/01/24 06:00:00;;;;;;;6.32;4.50;;;;;;;1.03;99.32;103236.16;4970122;28;20137;-79
2023/01/24 06:02:28;;;;;;;9.38;5.00;;;;;;;1.03;99.60;103235.25;4982725;28;20093;-79
2023/01/24 06:04:54;;;;;;;6.60;5.10;;;;;;;1.03;99.52;103230.09;4951619;28;20065;-78
2023/01/24 06:07:21;;;;;;;10.88;5.70;;;;;;;1.02;99.25;103231.78;4967776;28;20046;-78
2023/01/24 06:09:47;;;;;;;8.00;5.60;;;;;;;1.02;98.74;103233.44;4973413;28;20049;-78
2023/01/24 06:12:13;;;;;;;8.45;6.40;;;;;;;1.01;99.32;103236.84;4954067;28;20062;-78
2023/01/24 06:14:40;;;;;;;5.88;4.53;;;;;;;1.01;98.95;103236.84;4970956;28;20477;-79
2023/01/24 06:17:07;;;;;;;6.53;4.90;;;;;;;1.03;98.98;103243.91;4983166;28;20058;-79
2023/01/24 06:19:34;;;;;;;8.05;4.50;;;;;;;1.02;98.16;103238.59;4972651;28;20481;-80
2023/01/24 06:22:16;;;;;;;5.97;4.35;;;;;;;1.00;98.13;103246.25;4969094;28;20065;-79
2023/01/24 06:24:42;;;;;;;5.82;3.80;;;;;;;0.99;98.23;103252.19;4971732;28;20054;-77
2023/01/24 06:27:10;;;;;;;9.90;4.47;;;;;;;0.99;97.10;103254.75;4974338;28;20035;-78
2023/01/24 06:29:37;;;;;;;7.40;5.75;;;;;;;0.96;97.62;103254.56;4973470;28;20052;-79
2023/01/24 06:32:52;;;;;;;7.50;5.28;;;;;;;0.96;98.36;103254.56;4986040;28;20038;-78
2023/01/24 06:35:26;;;;;;;;;;;;;;;0.96;97.43;103255.44;4981249;28;20061;-78
2023/01/24 06:37:53;;;;;;;6.45;4.70;;;;;;;0.94;97.92;103254.44;4958625;28;19929;-78
2023/01/24 06:40:24;;;;;;;11.00;5.35;;;;;;;0.95;97.63;103260.50;4953849;28;20043;-78
2023/01/24 06:42:52;;;;;;;7.28;4.63;;;;;;;0.94;97.94;103258.69;4968761;28;20055;-80
2023/01/24 06:45:21;;;;;;;5.80;5.05;;;;;;;0.94;97.70;103267.34;4972690;28;20081;-78
2023/01/24 06:47:47;;;;;;;7.53;5.05;;;;;;;0.93;97.39;103256.91;4955609;28;20046;-79
2023/01/24 06:50:21;;;;;;;6.50;5.07;;;;;;;0.93;97.47;103257.81;4969974;28;20054;-79
2023/01/24 06:52:49;;;;;;;6.95;4.88;;;;;;;0.91;97.22;103264.56;4949288;28;20055;-79
2023/01/24 06:55:16;;;;;;;23.38;12.57;;;;;;;0.91;97.15;103266.22;4968643;28;20105;-79
2023/01/24 06:57:43;;;;;;;5.82;4.35;;;;;;;0.90;97.13;103267.00;4977407;28;20056;-79
2023/01/24 07:00:12;;;;;;;10.35;4.30;;;;;;;0.87;97.01;103271.94;4970336;28;20062;-78
2023/01/24 07:02:39;;;;;;;14.13;7.88;;;;;;;0.84;96.91;103272.59;4966418;28;20062;-77
2023/01/24 07:05:06;;;;;;;7.47;5.20;;;;;;;0.82;97.20;103264.78;4982619;28;20077;-82
2023/01/24 07:07:33;;;;;;;5.90;4.60;;;;;;;0.82;97.50;103277.66;4975568;28;20042;-79
2023/01/24 07:09:59;;;;;;;5.75;4.18;;;;;;;0.83;97.23;103275.97;4984578;28;20054;-79
2023/01/24 07:12:26;;;;;;;5.55;4.82;;;;;;;0.82;97.17;103279.31;4977466;28;20057;-78
2023/01/24 07:14:52;;;;;;;8.20;6.10;;;;;;;0.82;97.20;103284.47;4987399;28;20054;-78
2023/01/24 07:17:19;;;;;;;6.95;6.22;;;;;;;0.81;96.97;103290.44;4995048;28;20042;-79
2023/01/24 07:19:46;;;;;;;7.97;6.05;;;;;;;0.81;97.34;103283.59;4979782;28;20034;-78
2023/01/24 07:22:14;;;;;;;6.40;5.70;;;;;;;0.83;97.75;103286.28;4971193;28;20054;-79
2023/01/24 07:24:42;;;;;;;6.85;5.30;;;;;;;0.84;97.85;103285.50;4956397;28;20050;-80
2023/01/24 07:27:09;;;;;;;9.20;4.82;;;;;;;0.80;97.34;103289.53;4992214;28;20089;-78
2023/01/24 07:29:36;;;;;;;6.63;4.57;;;;;;;0.80;97.26;103284.38;4994167;28;20068;-79
2023/01/24 07:32:02;;;;;;;6.82;4.72;;;;;;;0.81;97.90;103285.28;4955070;28;20082;-79
2023/01/24 07:34:29;;;;;;;6.82;4.70;;;;;;;0.79;97.68;103297.16;4968763;28;20039;-78
2023/01/24 07:36:55;;;;;;;8.40;4.13;;;;;;;0.76;97.03;103294.38;4967375;28;20106;-80
2023/01/24 07:39:22;;;;;;;4.95;4.03;;;;;;;0.71;96.95;103298.28;4973731;28;20046;-80
2023/01/24 07:41:50;;;;;;;4.43;3.97;;;;;;;0.71;97.87;103293.13;4961824;28;20493;-78
2023/01/24 07:44:17;;;;;;;7.72;4.57;;;;;;;0.76;97.70;103296.94;4984002;28;20052;-79
2023/01/24 07:46:43;;;;;;;5.28;4.22;;;;;;;0.78;97.84;103295.34;4969967;28;20031;-79
2023/01/24 07:49:10;;;;;;;4.45;3.85;;;;;;;0.77;97.73;103298.72;4968490;28;20106;-80
2023/01/24 07:51:36;;;;;;;6.13;4.03;;;;;;;0.75;96.83;103303.75;4972583;28;20045;-78
2023/01/24 07:54:03;;;;;;;5.55;4.70;;;;;;;0.72;96.89;103302.63;4969696;28;20042;-79
2023/01/24 07:56:30;;;;;;;6.60;4.82;;;;;;;0.73;97.28;103301.84;4984226;28;20110;-79
2023/01/24 07:58:58;;;;;;;5.55;3.33;;;;;;;0.74;97.41;103306.25;4966541;28;20042;-78
2023/01/24 08:01:27;;;;;;;5.32;3.72;;;;;;;0.75;97.30;103306.34;4965369;28;20060;-77
2023/01/24 08:03:59;;;;;;;4.57;3.80;;;;;;;0.74;97.05;103301.09;4977389;28;21027;-78
2023/01/24 08:06:26;;;;;;;5.50;3.47;;;;;;;0.72;96.91;103311.28;4989887;28;20081;-77
2023/01/24 08:08:53;;;;;;;5.50;4.30;;;;;;;0.71;96.76;103317.22;4978356;28;20046;-78
2023/01/24 08:11:19;;;;;;;7.38;4.70;;;;;;;0.70;96.88;103318.00;4964575;28;20046;-78
2023/01/24 08:13:46;;;;;;;4.55;3.30;;;;;;;0.70;96.64;103312.84;4968046;28;20082;-78
2023/01/24 08:16:12;;;;;;;4.13;3.55;;;;;;;0.67;96.32;103312.63;4974430;28;20091;-80
2023/01/24 08:18:40;;;;;;;7.28;4.55;;;;;;;0.69;97.03;103323.03;4961183;28;20066;-79
2023/01/24 08:21:07;;;;;;;5.97;4.38;;;;;;;0.69;97.22;103323.94;4973067;28;20437;-79
2023/01/24 08:23:34;;;;;;;5.18;4.13;;;;;;;0.71;97.20;103331.81;4987447;28;20038;-79
2023/01/24 08:26:02;;;;;;;6.25;3.30;;;;;;;0.70;96.60;103327.41;4967363;28;20039;-80
2023/01/24 08:28:30;;;;;;;6.40;3.88;;;;;;;0.69;96.49;103325.63;4983676;28;20488;-82
2023/01/24 08:30:59;;;;;;;5.25;3.78;;;;;;;0.68;97.05;103329.91;4977887;28;20042;-78
2023/01/24 08:33:25;;;;;;;5.53;4.20;;;;;;;0.71;96.77;103329.22;4979169;28;20050;-80
2023/01/24 08:35:52;;;;;;;4.35;3.38;;;;;;;0.69;97.25;103326.50;4969945;28;20046;-79
2023/01/24 08:38:19;;;;;;;4.43;3.40;;;;;;;0.72;97.33;103325.84;4969813;28;20656;-81
2023/01/24 08:40:45;;;;;;;3.95;3.55;;;;;;;0.75;96.92;103336.41;4974855;28;20211;-78
2023/01/24 08:43:12;;;;;;;6.35;3.92;;;;;;;0.76;96.49;103330.47;4973767;28;20484;-79
2023/01/24 08:45:39;;;;;;;4.97;3.58;;;;;;;0.77;96.38;103329.66;4975063;28;20043;-78
2023/01/24 08:48:05;;;;;;;3.88;3.47;;;;;;;0.76;96.61;103331.34;4974707;28;20097;-82
2023/01/24 08:50:32;;;;;;;4.95;3.97;;;;;;;0.76;96.43;103330.47;4957830;28;20046;-78
2023/01/24 08:53:01;;;;;;;4.10;3.70;;;;;;;0.76;96.95;103338.19;4954660;28;20139;-78
2023/01/24 08:55:27;;;;;;;5.70;3.58;;;;;;;0.76;96.47;103333.03;4976547;28;20038;-78
2023/01/24 08:58:01;;;;;;;4.97;3.08;;;;;;;0.74;96.38;103343.22;4996294;28;20054;-80
2023/01/24 09:00:28;;;;;;;6.90;3.95;;;;;;;0.73;96.70;103338.88;4960748;28;20108;-78
2023/01/24 09:02:54;;;;;;;6.38;4.20;;;;;;;0.72;96.67;103337.06;4985551;28;20740;-78
2023/01/24 09:05:21;;;;;;;7.05;4.18;;;;;;;0.71;96.90;103343.00;4958820;28;20102;-79
2023/01/24 09:07:48;;;;;;;5.18;3.83;;;;;;;0.72;96.86;103349.97;4968649;28;20055;-78
2023/01/24 09:10:14;;;;;;;5.28;3.58;;;;;;;0.72;97.22;103347.38;4981134;28;20412;-78
2023/01/24 09:12:42;;;;;;;6.88;4.80;;;;;;;0.78;97.49;103354.66;4968770;28;20072;-78
2023/01/24 09:15:09;;;;;;;5.35;4.10;;;;;;;0.81;97.00;103353.22;4974716;28;20146;-79
2023/01/24 09:17:35;;;;;;;4.13;3.58;;;;;;;0.80;96.30;103347.97;4982093;28;20481;-78
2023/01/24 09:20:02;;;;;;;4.57;3.30;;;;;;;0.81;96.31;103354.91;4963178;28;20137;-77
2023/01/24 09:22:29;;;;;;;5.88;4.80;;;;;;;0.78;96.01;103349.50;4974747;28;20046;-79
2023/01/24 09:24:56;;;;;;;3.85;3.55;;;;;;;0.78;96.42;103355.59;4973538;28;20065;-78
2023/01/24 09:27:22;;;;;;;4.05;3.15;;;;;;;0.75;96.35;103354.44;4974048;28;20042;-78
2023/01/24 09:29:48;;;;;;;4.30;3.90;;;;;;;0.74;96.89;103355.22;4975683;28;20785;-79
2023/01/24 09:32:16;;;;;;;5.97;3.80;;;;;;;0.79;96.74;103353.88;4978881;28;20394;-80
2023/01/24 09:34:46;;;;;;;6.03;4.07;;;;;;;0.82;97.01;103356.69;4968817;28;20413;-79
2023/01/24 09:37:17;;;;;;;10.18;3.95;;;;;;;0.82;96.15;103354.09;4968908;28;20122;-78
2023/01/24 09:39:44;;;;;;;7.63;4.78;;;;;;;0.80;96.69;103354.00;4983053;28;20069;-81
2023/01/24 09:42:28;;;;;;;4.88;3.55;;;;;;;0.83;96.32;103355.91;4973097;28;20519;-82
2023/01/24 09:45:18;;;;;;;;;;;;;;;0.85;95.76;103361.16;4965445;28;20062;-80
2023/01/24 09:47:51;;;;;;;7.18;3.53;;;;;;;0.83;95.60;103358.50;4971940;28;19922;-80
2023/01/24 09:50:26;;;;;;;5.10;3.88;;;;;;;0.88;95.82;103353.69;4973061;28;20054;-78
2023/01/24 09:52:56;;;;;;;5.22;3.90;;;;;;;0.93;95.50;103358.38;4973560;28;20046;-78
2023/01/24 09:55:28;;;;;;;4.97;4.30;;;;;;;0.94;94.97;103355.03;4968727;28;20489;-80
2023/01/24 09:58:06;;;;;;;4.85;3.97;;;;;;;0.99;95.06;103357.94;4984352;28;20054;-80
2023/01/24 10:00:38;;;;;;;3.78;3.47;;;;;;;1.04;94.45;103359.19;4961356;28;20126;-81
2023/01/24 10:03:19;;;;;;;4.18;3.83;;;;;;;1.06;94.21;103355.03;4978519;28;20110;-79
2023/01/24 10:06:01;;;;;;;7.43;5.13;;;;;;;1.11;94.61;103356.28;4964951;28;20153;-77
2023/01/24 10:08:54;;;;;;;4.43;4.03;;;;;;;1.12;93.51;103352.91;4961550;28;20053;-78
2023/01/24 10:11:50;;;;;;;3.65;3.35;;;;;;;1.13;93.75;103354.72;4988126;28;20039;-80
2023/01/24 10:14:36;;;;;;;4.07;3.70;;;;;;;1.18;93.58;103351.56;4969557;28;20535;-78
2023/01/24 10:17:29;;;;;;;4.72;3.78;;;;;;;1.18;92.64;103349.00;4990041;28;20067;-77
2023/01/24 10:20:20;;;;;;;7.07;5.15;;;;;;;1.19;92.45;103353.34;4968819;28;20137;-78
2023/01/24 10:23:10;;;;;;;3.45;2.72;;;;;;;1.19;92.00;103346.53;4976395;28;20057;-79
2023/01/24 10:25:58;;;;;;;4.95;3.20;;;;;;;1.21;92.21;103341.47;4974825;28;20038;-79
2023/01/24 10:28:38;;;;;;;4.38;3.97;;;;;;;1.22;92.88;103335.53;4974052;28;20053;-79
2023/01/24 10:31:14;;;;;;;4.68;4.28;;;;;;;1.26;92.91;103341.00;4967610;28;20047;-79
2023/01/24 10:33:49;;;;;;;8.63;4.57;;;;;;;1.35;93.08;103337.31;4965688;28;20047;-79
2023/01/24 10:36:42;;;;;;;5.32;2.75;;;;;;;1.41;91.78;103335.16;4989007;28;20070;-78
2023/01/24 10:39:13;;;;;;;3.90;3.30;;;;;;;1.39;90.24;103341.91;4970362;28;20061;-78
2023/01/24 10:41:39;;;;;;;3.47;3.17;;;;;;;1.45;90.55;103337.19;4962616;28;20468;-78
2023/01/24 10:44:25;;;;;;;3.17;2.17;;;;;;;1.43;89.89;103334.47;4974535;28;20054;-79
2023/01/24 10:47:16;;;;;;;3.25;2.95;;;;;;;1.48;90.40;103332.25;4974044;28;20478;-81
2023/01/24 10:49:52;;;;;;;4.47;3.55;;;;;;;1.48;89.84;103329.66;4975201;28;20145;-79
2023/01/24 10:52:22;;;;;;;7.53;2.42;;;;;;;1.55;89.00;103328.41;4984255;28;20124;-78
2023/01/24 10:54:57;;;;;;;3.60;2.88;;;;;;;1.57;88.56;103319.97;4964958;28;20397;-80
2023/01/24 10:57:35;;;;;;;3.38;3.08;;;;;;;1.64;88.49;103314.47;4979317;28;20042;-78
2023/01/24 11:00:20;;;;;;;5.07;2.40;;;;;;;1.68;88.04;103312.09;4978274;28;20042;-81
2023/01/24 11:02:58;;;;;;;;;;;;;;;1.69;87.63;103308.75;4970747;28;20046;-78
2023/01/24 11:05:36;;;;;;;4.68;2.70;;;;;;;1.73;87.61;103315.91;4971619;28;19929;-76
2023/01/24 11:08:04;;;;;;;3.42;2.10;;;;;;;1.75;86.51;103311.75;4955858;28;20053;-78
2023/01/24 11:10:38;;;;;;;2.47;2.22;;;;;;;1.76;86.56;103313.53;4967705;28;20038;-79
2023/01/24 11:13:24;;;;;;;3.95;2.90;;;;;;;1.70;86.39;103308.84;4987676;28;20619;-80
2023/01/24 11:15:57;;;;;;;4.05;2.45;;;;;;;1.67;86.11;103318.06;4993612;28;20374;-79
2023/01/24 11:18:28;;;;;;;2.70;2.07;;;;;;;1.61;86.11;103315.94;4973845;28;20050;-82
2023/01/24 11:21:13;;;;;;;4.45;2.85;;;;;;;1.62;86.54;103310.88;4963907;28;20355;-77
2023/01/24 11:23:41;;;;;;;4.28;3.42;;;;;;;1.70;87.05;103313.13;4967495;28;20070;-79
2023/01/24 11:26:24;;;;;;;2.47;2.28;;;;;;;1.73;85.90;103301.28;4955946;28;20046;-80
2023/01/24 11:29:05;;;;;;;2.00;1.90;;;;;;;1.83;85.73;103315.75;4960301;28;20082;-78
2023/01/24 11:31:55;;;;;;;2.58;2.35;;;;;;;1.94;85.73;103301.00;4969593;28;20499;-79
2023/01/24 11:35:02;;;;;;;2.47;2.28;;;;;;;1.96;84.69;103307.19;4967560;28;20141;-78
2023/01/24 11:38:22;;;;;;;3.88;2.95;;;;;;;2.01;84.57;103307.47;4979796;28;20071;-82
2023/01/24 11:41:20;;;;;;;6.65;3.00;;;;;;;1.94;84.95;103324.25;4956912;28;20046;-79
2023/01/24 11:44:20;;;;;;;2.67;2.05;;;;;;;1.85;84.41;103316.75;4953365;28;20058;-79
2023/01/24 11:46:58;;;;;;;3.03;1.60;;;;;;;1.77;84.03;103311.06;4965673;28;20802;-78
2023/01/24 11:50:28;;;;;;;2.25;1.73;;;;;;;1.72;84.38;103306.34;4975769;28;20085;-79
2023/01/24 11:53:41;;;;;;;4.45;2.15;;;;;;;1.70;84.80;103297.63;4924205;29;20054;-79
2023/01/24 11:57:03;;;;;;;3.55;2.20;;;;;;;1.67;85.36;103282.81;4966530;28;20056;-79
2023/01/24 11:59:48;;;;;;;1.95;1.75;;;;;;;1.62;84.89;103285.06;4957339;28;20042;-80
2023/01/24 12:02:49;;;;;;;3.30;1.67;;;;;;;1.59;85.07;103274.53;4968119;28;20090;-81
2023/01/24 12:05:32;;;;;;;3.30;1.95;;;;;;;1.58;85.47;103280.47;4979102;28;20065;-80
2023/01/24 12:08:26;;;;;;;2.50;2.28;;;;;;;1.55;85.81;103284.50;4969345;28;20509;-80
2023/01/24 12:11:16;;;;;;;3.75;3.45;;;;;;;1.59;86.53;103273.59;4971699;28;20051;-78
2023/01/24 12:13:49;;;;;;;3.38;2.60;;;;;;;1.62;85.81;103274.72;4969208;28;20062;-80
2023/01/24 12:16:45;;;;;;;2.53;2.38;;;;;;;1.60;86.24;103265.09;4969039;28;20054;-82
2023/01/24 12:19:39;;;;;;;2.78;2.53;;;;;;;1.61;85.98;103254.84;4980341;28;20073;-79
2023/01/24 12:22:20;;;;;;;3.88;2.80;;;;;;;1.65;86.21;103245.66;4980417;28;20065;-82
2023/01/24 12:24:54;;;;;;;3.00;2.58;;;;;;;1.67;85.67;103248.31;4961634;28;20501;-78
2023/01/24 12:27:26;;;;;;;2.95;2.65;;;;;;;1.55;85.69;103245.78;4950123;28;20133;-78
2023/01/24 12:30:03;;;;;;;6.18;4.80;;;;;;;1.52;86.69;103233.56;4966948;28;20065;-83
2023/01/24 12:32:57;;;;;;;3.05;2.10;;;;;;;1.55;86.63;103230.31;4968697;28;20048;-78
2023/01/24 12:35:34;;;;;;;3.67;3.20;;;;;;;1.58;87.18;103231.41;4964762;28;20133;-78